sensor_id;sensor_type;location;lat;lon;timestamp;pressure;altitude;pressure_sealevel;temperature;humidity
70555;BME280;58104;52.744;15.242;2022-10-26T00:00:23;101095.84;;;19.26;55.23
70555;BME280;58104;52.744;15.242;2022-10-26T00:02:47;101095.55;;;19.21;55.20
70555;BME280;58104;52.744;15.242;2022-10-26T00:05:13;101098.70;;;19.27;55.29
70555;BME280;58104;52.744;15.242;2022-10-26T00:07:38;101099.17;;;19.19;55.50
70555;BME280;58104;52.744;15.242;2022-10-26T00:10:04;101100.89;;;19.22;55.50
70555;BME280;58104;52.744;15.242;2022-10-26T00:12:29;101101.59;;;19.18;56.05
70555;BME280;58104;52.744;15.242;2022-10-26T00:14:54;101102.70;;;19.18;55.94
70555;BME280;58104;52.744;15.242;2022-10-26T00:17:20;101100.65;;;19.20;56.18
70555;BME280;58104;52.744;15.242;2022-10-26T00:19:45;101102.85;;;19.18;56.56
70555;BME280;58104;52.744;15.242;2022-10-26T00:22:11;101104.26;;;19.24;56.78
70555;BME280;58104;52.744;15.242;2022-10-26T00:24:36;101110.82;;;19.27;56.67
70555;BME280;58104;52.744;15.242;2022-10-26T00:27:01;101107.66;;;19.26;56.81
70555;BME280;58104;52.744;15.242;2022-10-26T00:29:27;101108.17;;;19.17;57.23
70555;BME280;58104;52.744;15.242;2022-10-26T00:31:52;101108.49;;;19.16;57.47
70555;BME280;58104;52.744;15.242;2022-10-26T00:34:18;101111.67;;;19.20;57.43
70555;BME280;58104;52.744;15.242;2022-10-26T00:36:43;101110.93;;;19.20;57.02
70555;BME280;58104;52.744;15.242;2022-10-26T00:39:10;101108.62;;;19.22;57.35
70555;BME280;58104;52.744;15.242;2022-10-26T00:41:34;101105.26;;;19.32;57.31
70555;BME280;58104;52.744;15.242;2022-10-26T00:44:00;101106.77;;;19.16;57.50
70555;BME280;58104;52.744;15.242;2022-10-26T00:46:28;101106.54;;;19.24;57.52
70555;BME280;58104;52.744;15.242;2022-10-26T00:48:53;101110.90;;;19.20;57.68
70555;BME280;58104;52.744;15.242;2022-10-26T00:51:21;101110.80;;;19.24;57.04
70555;BME280;58104;52.744;15.242;2022-10-26T00:53:41;101104.62;;;19.22;57.60
70555;BME280;58104;52.744;15.242;2022-10-26T00:56:07;101104.38;;;19.28;57.66
70555;BME280;58104;52.744;15.242;2022-10-26T00:58:33;101104.30;;;19.18;58.05
70555;BME280;58104;52.744;15.242;2022-10-26T01:00:57;101101.79;;;19.19;57.70
70555;BME280;58104;52.744;15.242;2022-10-26T01:03:23;101105.28;;;19.18;57.93
70555;BME280;58104;52.744;15.242;2022-10-26T01:05:48;101103.57;;;19.19;58.00
70555;BME280;58104;52.744;15.242;2022-10-26T01:08:15;101100.45;;;19.18;58.28
70555;BME280;58104;52.744;15.242;2022-10-26T01:10:40;101100.67;;;19.26;57.96
70555;BME280;58104;52.744;15.242;2022-10-26T01:13:05;101099.64;;;19.22;58.30
70555;BME280;58104;52.744;15.242;2022-10-26T01:15:36;101097.72;;;19.25;58.44
70555;BME280;58104;52.744;15.242;2022-10-26T01:17:57;101098.10;;;19.29;58.56
70555;BME280;58104;52.744;15.242;2022-10-26T01:22:50;101098.39;;;19.26;58.69
70555;BME280;58104;52.744;15.242;2022-10-26T01:25:16;101100.08;;;19.26;59.06
70555;BME280;58104;52.744;15.242;2022-10-26T01:27:38;101100.64;;;19.16;59.13
70555;BME280;58104;52.744;15.242;2022-10-26T01:30:11;101098.29;;;19.24;59.08
70555;BME280;58104;52.744;15.242;2022-10-26T01:32:33;101097.04;;;19.22;59.44
70555;BME280;58104;52.744;15.242;2022-10-26T01:34:58;101093.56;;;19.21;59.62
70555;BME280;58104;52.744;15.242;2022-10-26T01:37:23;101093.86;;;19.24;59.79
70555;BME280;58104;52.744;15.242;2022-10-26T01:39:48;101092.13;;;19.32;59.69
70555;BME280;58104;52.744;15.242;2022-10-26T01:42:11;101094.18;;;19.26;59.13
70555;BME280;58104;52.744;15.242;2022-10-26T01:44:37;101098.51;;;19.20;59.69
70555;BME280;58104;52.744;15.242;2022-10-26T01:47:02;101099.24;;;19.26;59.63
70555;BME280;58104;52.744;15.242;2022-10-26T01:49:28;101098.68;;;19.24;59.73
70555;BME280;58104;52.744;15.242;2022-10-26T01:51:51;101096.80;;;19.21;60.13
70555;BME280;58104;52.744;15.242;2022-10-26T01:54:16;101095.82;;;19.26;59.98
70555;BME280;58104;52.744;15.242;2022-10-26T01:56:45;101096.47;;;19.27;60.13
70555;BME280;58104;52.744;15.242;2022-10-26T01:59:18;101101.62;;;19.25;59.97
70555;BME280;58104;52.744;15.242;2022-10-26T02:01:44;101108.88;;;19.28;60.07
70555;BME280;58104;52.744;15.242;2022-10-26T02:04:05;101102.16;;;19.24;59.65
70555;BME280;58104;52.744;15.242;2022-10-26T02:06:28;101101.22;;;19.19;60.24
70555;BME280;58104;52.744;15.242;2022-10-26T02:08:57;101099.39;;;19.24;59.72
70555;BME280;58104;52.744;15.242;2022-10-26T02:11:22;101099.87;;;19.30;59.67
70555;BME280;58104;52.744;15.242;2022-10-26T02:13:44;101099.75;;;19.25;60.20
70555;BME280;58104;52.744;15.242;2022-10-26T02:16:12;101099.16;;;19.21;60.35
70555;BME280;58104;52.744;15.242;2022-10-26T02:18:33;101096.20;;;19.16;60.83
70555;BME280;58104;52.744;15.242;2022-10-26T02:21:00;101098.64;;;19.18;60.61
70555;BME280;58104;52.744;15.242;2022-10-26T02:23:23;101100.07;;;19.31;60.08
70555;BME280;58104;52.744;15.242;2022-10-26T02:25:50;101102.65;;;19.27;60.35
70555;BME280;58104;52.744;15.242;2022-10-26T02:28:16;101101.76;;;19.23;60.37
70555;BME280;58104;52.744;15.242;2022-10-26T02:30:38;101097.81;;;19.20;60.17
70555;BME280;58104;52.744;15.242;2022-10-26T02:33:04;101097.58;;;19.31;60.52
70555;BME280;58104;52.744;15.242;2022-10-26T02:35:30;101099.34;;;19.17;60.41
70555;BME280;58104;52.744;15.242;2022-10-26T02:37:55;101101.11;;;19.17;60.22
70555;BME280;58104;52.744;15.242;2022-10-26T02:40:22;101096.86;;;19.12;60.65
70555;BME280;58104;52.744;15.242;2022-10-26T02:42:45;101091.65;;;19.22;60.21
70555;BME280;58104;52.744;15.242;2022-10-26T02:45:14;101097.34;;;19.17;60.37
70555;BME280;58104;52.744;15.242;2022-10-26T02:47:35;101094.43;;;19.16;60.12
70555;BME280;58104;52.744;15.242;2022-10-26T02:50:01;101097.62;;;19.18;60.52
70555;BME280;58104;52.744;15.242;2022-10-26T02:52:34;101099.67;;;19.09;60.79
70555;BME280;58104;52.744;15.242;2022-10-26T02:54:55;101102.90;;;19.09;60.79
70555;BME280;58104;52.744;15.242;2022-10-26T02:57:19;101102.87;;;19.10;60.46
70555;BME280;58104;52.744;15.242;2022-10-26T02:59:44;101103.13;;;19.10;60.47
70555;BME280;58104;52.744;15.242;2022-10-26T03:02:08;101103.97;;;19.08;61.13
70555;BME280;58104;52.744;15.242;2022-10-26T03:04:34;101107.01;;;19.24;61.24
70555;BME280;58104;52.744;15.242;2022-10-26T03:06:59;101107.97;;;19.21;60.84
70555;BME280;58104;52.744;15.242;2022-10-26T03:09:25;101112.32;;;19.08;61.16
70555;BME280;58104;52.744;15.242;2022-10-26T03:11:50;101111.94;;;19.03;61.13
70555;BME280;58104;52.744;15.242;2022-10-26T03:14:15;101112.05;;;19.11;60.77
70555;BME280;58104;52.744;15.242;2022-10-26T03:16:40;101111.09;;;19.02;61.76
70555;BME280;58104;52.744;15.242;2022-10-26T03:19:06;101109.95;;;19.05;60.57
70555;BME280;58104;52.744;15.242;2022-10-26T03:21:31;101110.13;;;19.09;60.84
70555;BME280;58104;52.744;15.242;2022-10-26T03:23:57;101108.08;;;19.11;61.27
70555;BME280;58104;52.744;15.242;2022-10-26T03:26:22;101112.65;;;19.11;61.33
70555;BME280;58104;52.744;15.242;2022-10-26T03:28:47;101116.02;;;19.03;60.96
70555;BME280;58104;52.744;15.242;2022-10-26T03:31:13;101113.98;;;19.03;60.92
70555;BME280;58104;52.744;15.242;2022-10-26T03:33:38;101115.46;;;19.11;60.28
70555;BME280;58104;52.744;15.242;2022-10-26T03:36:04;101114.98;;;19.09;60.64
70555;BME280;58104;52.744;15.242;2022-10-26T03:38:29;101119.05;;;19.05;61.89
70555;BME280;58104;52.744;15.242;2022-10-26T03:40:55;101120.04;;;19.07;60.84
70555;BME280;58104;52.744;15.242;2022-10-26T03:43:20;101125.29;;;19.04;60.75
70555;BME280;58104;52.744;15.242;2022-10-26T03:45:46;101123.15;;;19.14;61.41
70555;BME280;58104;52.744;15.242;2022-10-26T03:48:11;101123.79;;;19.03;62.02
70555;BME280;58104;52.744;15.242;2022-10-26T03:50:36;101127.18;;;19.08;61.68
70555;BME280;58104;52.744;15.242;2022-10-26T03:53:02;101126.97;;;19.13;61.63
70555;BME280;58104;52.744;15.242;2022-10-26T03:55:27;101125.00;;;19.17;61.37
70555;BME280;58104;52.744;15.242;2022-10-26T03:57:53;101123.86;;;19.13;61.14
70555;BME280;58104;52.744;15.242;2022-10-26T04:00:18;101124.12;;;19.02;60.83
70555;BME280;58104;52.744;15.242;2022-10-26T04:02:44;101119.54;;;19.03;60.63
70555;BME280;58104;52.744;15.242;2022-10-26T04:05:09;101121.50;;;19.04;62.00
70555;BME280;58104;52.744;15.242;2022-10-26T04:07:34;101124.35;;;19.08;61.15
70555;BME280;58104;52.744;15.242;2022-10-26T04:10:00;101126.20;;;19.08;61.30
70555;BME280;58104;52.744;15.242;2022-10-26T04:12:25;101130.77;;;19.06;61.49
70555;BME280;58104;52.744;15.242;2022-10-26T04:14:51;101129.10;;;19.02;61.79
70555;BME280;58104;52.744;15.242;2022-10-26T04:17:16;101128.78;;;19.09;61.50
70555;BME280;58104;52.744;15.242;2022-10-26T04:19:41;101127.50;;;19.08;61.76
70555;BME280;58104;52.744;15.242;2022-10-26T04:22:07;101127.26;;;19.00;61.09
70555;BME280;58104;52.744;15.242;2022-10-26T04:24:32;101126.41;;;19.08;61.99
70555;BME280;58104;52.744;15.242;2022-10-26T04:26:58;101128.38;;;19.06;61.48
70555;BME280;58104;52.744;15.242;2022-10-26T04:29:23;101133.02;;;18.96;61.92
70555;BME280;58104;52.744;15.242;2022-10-26T04:31:48;101132.99;;;18.99;61.15
70555;BME280;58104;52.744;15.242;2022-10-26T04:34:13;101132.32;;;18.96;60.24
70555;BME280;58104;52.744;15.242;2022-10-26T04:36:39;101135.62;;;18.92;62.14
70555;BME280;58104;52.744;15.242;2022-10-26T04:39:04;101139.43;;;18.88;61.25
70555;BME280;58104;52.744;15.242;2022-10-26T04:41:30;101135.12;;;18.99;62.39
70555;BME280;58104;52.744;15.242;2022-10-26T04:43:55;101138.66;;;19.07;61.46
70555;BME280;58104;52.744;15.242;2022-10-26T04:46:21;101137.47;;;19.08;62.03
70555;BME280;58104;52.744;15.242;2022-10-26T04:48:46;101137.19;;;19.03;61.98
70555;BME280;58104;52.744;15.242;2022-10-26T04:51:11;101140.23;;;19.08;61.06
70555;BME280;58104;52.744;15.242;2022-10-26T04:53:37;101135.21;;;19.01;61.61
70555;BME280;58104;52.744;15.242;2022-10-26T04:56:02;101131.52;;;19.04;62.13
70555;BME280;58104;52.744;15.242;2022-10-26T04:58:28;101131.18;;;19.01;62.07
70555;BME280;58104;52.744;15.242;2022-10-26T05:00:53;101129.13;;;19.01;62.20
70555;BME280;58104;52.744;15.242;2022-10-26T05:03:19;101128.48;;;18.93;59.65
70555;BME280;58104;52.744;15.242;2022-10-26T05:05:44;101130.12;;;18.03;58.93
70555;BME280;58104;52.744;15.242;2022-10-26T05:08:09;101127.31;;;17.48;60.02
70555;BME280;58104;52.744;15.242;2022-10-26T05:10:35;101128.03;;;17.22;58.92
70555;BME280;58104;52.744;15.242;2022-10-26T05:13:00;101125.94;;;16.89;59.16
70555;BME280;58104;52.744;15.242;2022-10-26T05:15:27;101124.91;;;17.10;57.98
70555;BME280;58104;52.744;15.242;2022-10-26T05:17:54;101122.61;;;16.68;58.72
70555;BME280;58104;52.744;15.242;2022-10-26T05:20:16;101124.89;;;16.61;58.14
70555;BME280;58104;52.744;15.242;2022-10-26T05:22:42;101125.66;;;16.57;57.56
70555;BME280;58104;52.744;15.242;2022-10-26T05:25:08;101128.87;;;16.41;58.48
70555;BME280;58104;52.744;15.242;2022-10-26T05:27:33;101130.34;;;16.52;57.27
70555;BME280;58104;52.744;15.242;2022-10-26T05:29:58;101128.47;;;16.42;57.51
70555;BME280;58104;52.744;15.242;2022-10-26T05:32:23;101130.84;;;16.21;57.86
70555;BME280;58104;52.744;15.242;2022-10-26T05:34:49;101130.73;;;16.22;56.94
70555;BME280;58104;52.744;15.242;2022-10-26T05:37:14;101131.83;;;16.33;56.00
70555;BME280;58104;52.744;15.242;2022-10-26T05:39:40;101134.13;;;16.55;56.52
70555;BME280;58104;52.744;15.242;2022-10-26T05:42:05;101130.48;;;16.64;55.53
70555;BME280;58104;52.744;15.242;2022-10-26T05:44:31;101129.60;;;16.51;55.75
70555;BME280;58104;52.744;15.242;2022-10-26T05:46:56;101129.43;;;16.57;55.88
70555;BME280;58104;52.744;15.242;2022-10-26T05:49:21;101136.92;;;16.57;55.83
70555;BME280;58104;52.744;15.242;2022-10-26T05:51:46;101140.67;;;16.42;55.61
70555;BME280;58104;52.744;15.242;2022-10-26T05:54:12;101142.46;;;16.22;56.92
70555;BME280;58104;52.744;15.242;2022-10-26T05:56:39;101146.53;;;16.56;55.40
70555;BME280;58104;52.744;15.242;2022-10-26T05:59:11;101150.30;;;16.59;55.05
70555;BME280;58104;52.744;15.242;2022-10-26T06:01:36;101152.14;;;16.61;55.14
70555;BME280;58104;52.744;15.242;2022-10-26T06:04:05;101158.16;;;16.83;55.90
70555;BME280;58104;52.744;15.242;2022-10-26T06:06:21;101161.62;;;17.66;55.15
70555;BME280;58104;52.744;15.242;2022-10-26T06:08:44;101166.45;;;18.22;53.72
70555;BME280;58104;52.744;15.242;2022-10-26T06:11:10;101171.99;;;18.51;52.99
70555;BME280;58104;52.744;15.242;2022-10-26T06:13:35;101172.43;;;18.82;53.18
70555;BME280;58104;52.744;15.242;2022-10-26T06:16:13;101173.18;;;18.93;52.99
70555;BME280;58104;52.744;15.242;2022-10-26T06:18:34;101173.30;;;19.03;52.91
70555;BME280;58104;52.744;15.242;2022-10-26T06:21:00;101173.32;;;19.24;52.71
70555;BME280;58104;52.744;15.242;2022-10-26T06:25:47;101181.98;;;19.16;52.54
70555;BME280;58104;52.744;15.242;2022-10-26T06:28:15;101179.55;;;19.24;52.09
70555;BME280;58104;52.744;15.242;2022-10-26T06:30:33;101182.09;;;19.17;52.06
70555;BME280;58104;52.744;15.242;2022-10-26T06:32:58;101185.93;;;19.33;51.81
70555;BME280;58104;52.744;15.242;2022-10-26T06:35:30;101188.05;;;19.41;51.83
70555;BME280;58104;52.744;15.242;2022-10-26T06:37:49;101187.25;;;19.32;51.33
70555;BME280;58104;52.744;15.242;2022-10-26T06:40:16;101184.52;;;19.35;51.07
70555;BME280;58104;52.744;15.242;2022-10-26T06:42:41;101182.86;;;19.34;51.79
70555;BME280;58104;52.744;15.242;2022-10-26T06:45:13;101186.32;;;19.31;51.70
70555;BME280;58104;52.744;15.242;2022-10-26T06:47:37;101185.61;;;19.45;51.85
70555;BME280;58104;52.744;15.242;2022-10-26T06:50:01;101186.48;;;19.69;51.08
70555;BME280;58104;52.744;15.242;2022-10-26T06:52:28;101189.04;;;19.67;51.03
70555;BME280;58104;52.744;15.242;2022-10-26T06:54:48;101187.81;;;19.63;51.44
70555;BME280;58104;52.744;15.242;2022-10-26T06:57:14;101188.19;;;19.71;51.10
70555;BME280;58104;52.744;15.242;2022-10-26T06:59:41;101191.76;;;19.56;51.14
70555;BME280;58104;52.744;15.242;2022-10-26T07:02:03;101192.98;;;19.64;50.73
70555;BME280;58104;52.744;15.242;2022-10-26T07:04:29;101194.85;;;19.62;50.54
70555;BME280;58104;52.744;15.242;2022-10-26T07:06:54;101195.62;;;19.55;49.95
70555;BME280;58104;52.744;15.242;2022-10-26T07:09:19;101195.81;;;19.56;51.17
70555;BME280;58104;52.744;15.242;2022-10-26T07:11:45;101198.11;;;19.73;50.10
70555;BME280;58104;52.744;15.242;2022-10-26T07:14:10;101205.60;;;19.85;50.53
70555;BME280;58104;52.744;15.242;2022-10-26T07:16:36;101207.18;;;20.05;50.42
70555;BME280;58104;52.744;15.242;2022-10-26T07:19:01;101210.53;;;20.04;50.30
70555;BME280;58104;52.744;15.242;2022-10-26T07:21:27;101215.83;;;20.13;50.28
70555;BME280;58104;52.744;15.242;2022-10-26T07:23:52;101216.66;;;20.23;49.44
70555;BME280;58104;52.744;15.242;2022-10-26T07:26:17;101216.27;;;20.30;49.84
70555;BME280;58104;52.744;15.242;2022-10-26T07:28:43;101217.04;;;20.49;49.52
70555;BME280;58104;52.744;15.242;2022-10-26T07:31:08;101216.57;;;20.34;50.08
70555;BME280;58104;52.744;15.242;2022-10-26T07:33:34;101217.42;;;20.32;49.69
70555;BME280;58104;52.744;15.242;2022-10-26T07:35:59;101218.47;;;20.14;50.41
70555;BME280;58104;52.744;15.242;2022-10-26T07:38:24;101222.19;;;20.27;49.92
70555;BME280;58104;52.744;15.242;2022-10-26T07:40:50;101220.85;;;20.41;50.15
70555;BME280;58104;52.744;15.242;2022-10-26T07:43:15;101219.73;;;20.42;50.68
70555;BME280;58104;52.744;15.242;2022-10-26T07:45:41;101218.73;;;20.30;50.24
70555;BME280;58104;52.744;15.242;2022-10-26T07:48:06;101217.96;;;20.58;49.96
70555;BME280;58104;52.744;15.242;2022-10-26T07:50:32;101218.73;;;20.56;49.96
70555;BME280;58104;52.744;15.242;2022-10-26T07:52:57;101216.18;;;20.81;49.63
70555;BME280;58104;52.744;15.242;2022-10-26T07:55:22;101215.21;;;20.87;49.03
70555;BME280;58104;52.744;15.242;2022-10-26T07:57:47;101224.21;;;20.93;49.60
70555;BME280;58104;52.744;15.242;2022-10-26T08:00:14;101230.66;;;20.75;48.92
70555;BME280;58104;52.744;15.242;2022-10-26T08:02:38;101235.22;;;20.79;49.87
70555;BME280;58104;52.744;15.242;2022-10-26T08:05:04;101234.02;;;21.03;49.23
70555;BME280;58104;52.744;15.242;2022-10-26T08:07:29;101236.96;;;20.86;49.74
70555;BME280;58104;52.744;15.242;2022-10-26T08:09:54;101239.82;;;21.13;48.88
70555;BME280;58104;52.744;15.242;2022-10-26T08:12:20;101240.37;;;20.85;48.20
70555;BME280;58104;52.744;15.242;2022-10-26T08:14:45;101240.88;;;20.61;47.61
70555;BME280;58104;52.744;15.242;2022-10-26T08:17:11;101242.24;;;20.26;48.16
70555;BME280;58104;52.744;15.242;2022-10-26T08:19:36;101242.72;;;19.96;47.29
70555;BME280;58104;52.744;15.242;2022-10-26T08:22:02;101242.90;;;19.53;48.39
70555;BME280;58104;52.744;15.242;2022-10-26T08:24:28;101243.60;;;19.54;48.28
70555;BME280;58104;52.744;15.242;2022-10-26T08:26:53;101242.57;;;19.30;49.23
70555;BME280;58104;52.744;15.242;2022-10-26T08:29:19;101236.15;;;19.26;48.75
70555;BME280;58104;52.744;15.242;2022-10-26T08:31:46;101236.60;;;19.65;50.72
70555;BME280;58104;52.744;15.242;2022-10-26T08:34:09;101238.09;;;20.22;49.33
70555;BME280;58104;52.744;15.242;2022-10-26T08:36:35;101234.55;;;20.73;49.33
70555;BME280;58104;52.744;15.242;2022-10-26T08:39:03;101227.74;;;21.20;47.49
70555;BME280;58104;52.744;15.242;2022-10-26T08:41:34;101226.49;;;21.32;47.31
70555;BME280;58104;52.744;15.242;2022-10-26T08:43:53;101225.45;;;21.47;47.14
70555;BME280;58104;52.744;15.242;2022-10-26T08:46:19;101223.45;;;21.79;46.62
70555;BME280;58104;52.744;15.242;2022-10-26T08:48:46;101224.17;;;21.96;46.20
70555;BME280;58104;52.744;15.242;2022-10-26T08:51:11;101227.28;;;22.02;46.18
70555;BME280;58104;52.744;15.242;2022-10-26T08:53:37;101230.61;;;22.22;45.45
70555;BME280;58104;52.744;15.242;2022-10-26T08:56:02;101234.43;;;22.53;45.02
70555;BME280;58104;52.744;15.242;2022-10-26T08:58:27;101238.04;;;22.60;44.95
70555;BME280;58104;52.744;15.242;2022-10-26T09:00:50;101237.45;;;22.55;45.12
70555;BME280;58104;52.744;15.242;2022-10-26T09:03:16;101236.49;;;22.47;45.53
70555;BME280;58104;52.744;15.242;2022-10-26T09:05:51;101238.77;;;22.53;45.39
70555;BME280;58104;52.744;15.242;2022-10-26T09:08:10;101240.04;;;22.50;45.52
70555;BME280;58104;52.744;15.242;2022-10-26T09:10:38;101241.68;;;22.63;45.27
70555;BME280;58104;52.744;15.242;2022-10-26T09:13:03;101251.19;;;22.96;44.64
70555;BME280;58104;52.744;15.242;2022-10-26T09:15:27;101248.35;;;22.55;42.66
70555;BME280;58104;52.744;15.242;2022-10-26T09:17:53;101252.34;;;22.61;42.40
70555;BME280;58104;52.744;15.242;2022-10-26T09:20:23;101254.20;;;22.45;41.55
70555;BME280;58104;52.744;15.242;2022-10-26T09:22:43;101248.68;;;22.16;43.23
70555;BME280;58104;52.744;15.242;2022-10-26T09:25:11;101249.96;;;22.15;41.74
70555;BME280;58104;52.744;15.242;2022-10-26T09:27:31;101249.78;;;22.37;41.71
70555;BME280;58104;52.744;15.242;2022-10-26T09:29:56;101250.61;;;22.39;41.64
70555;BME280;58104;52.744;15.242;2022-10-26T09:32:22;101248.08;;;22.25;41.12
70555;BME280;58104;52.744;15.242;2022-10-26T09:34:48;101248.69;;;22.07;42.56
70555;BME280;58104;52.744;15.242;2022-10-26T09:37:14;101249.96;;;21.87;42.77
70555;BME280;58104;52.744;15.242;2022-10-26T09:39:40;101254.09;;;22.44;42.00
70555;BME280;58104;52.744;15.242;2022-10-26T09:42:06;101254.94;;;22.61;40.65
70555;BME280;58104;52.744;15.242;2022-10-26T09:44:30;101259.70;;;22.65;41.97
70555;BME280;58104;52.744;15.242;2022-10-26T09:46:57;101265.64;;;23.04;40.57
70555;BME280;58104;52.744;15.242;2022-10-26T09:49:20;101265.09;;;23.03;39.89
70555;BME280;58104;52.744;15.242;2022-10-26T09:51:44;101266.62;;;23.69;40.40
70555;BME280;58104;52.744;15.242;2022-10-26T09:54:13;101265.02;;;24.02;39.91
70555;BME280;58104;52.744;15.242;2022-10-26T09:56:35;101263.18;;;23.70;39.78
70555;BME280;58104;52.744;15.242;2022-10-26T09:59:01;101265.83;;;24.24;39.20
70555;BME280;58104;52.744;15.242;2022-10-26T10:01:28;101267.52;;;24.50;38.69
70555;BME280;58104;52.744;15.242;2022-10-26T10:06:16;101267.55;;;24.69;38.34
70555;BME280;58104;52.744;15.242;2022-10-26T10:08:40;101273.37;;;24.66;38.01
70555;BME280;58104;52.744;15.242;2022-10-26T10:11:08;101277.90;;;25.07;37.82
70555;BME280;58104;52.744;15.242;2022-10-26T10:13:33;101268.41;;;25.58;37.19
70555;BME280;58104;52.744;15.242;2022-10-26T10:16:04;101265.73;;;25.53;37.08
70555;BME280;58104;52.744;15.242;2022-10-26T10:18:23;101260.27;;;25.68;37.17
70555;BME280;58104;52.744;15.242;2022-10-26T10:20:53;101259.75;;;25.63;36.58
70555;BME280;58104;52.744;15.242;2022-10-26T10:25:38;101256.24;;;25.95;36.52
70555;BME280;58104;52.744;15.242;2022-10-26T10:30:30;101258.74;;;25.95;36.74
70555;BME280;58104;52.744;15.242;2022-10-26T10:35:23;101256.92;;;25.79;36.82
70555;BME280;58104;52.744;15.242;2022-10-26T10:37:45;101254.79;;;26.06;36.46
70555;BME280;58104;52.744;15.242;2022-10-26T10:40:16;101258.08;;;26.07;36.49
70555;BME280;58104;52.744;15.242;2022-10-26T10:42:37;101256.51;;;26.10;36.43
70555;BME280;58104;52.744;15.242;2022-10-26T10:45:01;101254.80;;;26.11;36.35
70555;BME280;58104;52.744;15.242;2022-10-26T10:47:28;101254.39;;;26.01;36.58
70555;BME280;58104;52.744;15.242;2022-10-26T10:49:55;101253.46;;;26.03;36.61
70555;BME280;58104;52.744;15.242;2022-10-26T10:52:24;101254.32;;;25.87;36.58
70555;BME280;58104;52.744;15.242;2022-10-26T10:54:42;101257.28;;;25.85;36.59
70555;BME280;58104;52.744;15.242;2022-10-26T10:57:14;101256.46;;;25.66;36.59
70555;BME280;58104;52.744;15.242;2022-10-26T10:59:43;101256.65;;;25.93;36.46
70555;BME280;58104;52.744;15.242;2022-10-26T11:02:14;101256.98;;;26.06;36.68
70555;BME280;58104;52.744;15.242;2022-10-26T11:04:35;101255.29;;;26.15;36.41
70555;BME280;58104;52.744;15.242;2022-10-26T11:06:49;101255.47;;;26.03;36.58
70555;BME280;58104;52.744;15.242;2022-10-26T11:09:17;101254.96;;;26.05;36.62
70555;BME280;58104;52.744;15.242;2022-10-26T11:11:42;101251.79;;;26.13;36.69
70555;BME280;58104;52.744;15.242;2022-10-26T11:14:09;101247.89;;;26.03;36.87
70555;BME280;58104;52.744;15.242;2022-10-26T11:16:35;101251.05;;;26.08;37.06
70555;BME280;58104;52.744;15.242;2022-10-26T11:18:59;101252.77;;;26.07;37.06
70555;BME280;58104;52.744;15.242;2022-10-26T11:21:25;101255.21;;;26.23;36.89
70555;BME280;58104;52.744;15.242;2022-10-26T11:23:49;101256.20;;;26.17;36.84
70555;BME280;58104;52.744;15.242;2022-10-26T11:26:16;101254.36;;;26.09;37.01
70555;BME280;58104;52.744;15.242;2022-10-26T11:28:41;101255.78;;;26.15;37.05
70555;BME280;58104;52.744;15.242;2022-10-26T11:31:06;101253.73;;;26.15;36.97
70555;BME280;58104;52.744;15.242;2022-10-26T11:33:31;101249.52;;;26.19;36.99
70555;BME280;58104;52.744;15.242;2022-10-26T11:35:57;101253.24;;;26.31;36.94
70555;BME280;58104;52.744;15.242;2022-10-26T11:38:21;101253.22;;;26.11;37.15
70555;BME280;58104;52.744;15.242;2022-10-26T11:40:49;101250.10;;;26.10;37.46
70555;BME280;58104;52.744;15.242;2022-10-26T11:43:13;101250.60;;;26.08;37.32
70555;BME280;58104;52.744;15.242;2022-10-26T11:45:39;101250.39;;;26.28;37.18
70555;BME280;58104;52.744;15.242;2022-10-26T11:48:05;101249.39;;;26.22;37.04
70555;BME280;58104;52.744;15.242;2022-10-26T11:50:29;101248.79;;;26.40;36.89
70555;BME280;58104;52.744;15.242;2022-10-26T11:52:53;101247.95;;;26.41;36.49
70555;BME280;58104;52.744;15.242;2022-10-26T11:55:16;101246.37;;;26.40;36.44
70555;BME280;58104;52.744;15.242;2022-10-26T11:57:41;101245.16;;;26.65;36.16
70555;BME280;58104;52.744;15.242;2022-10-26T12:00:13;101249.29;;;26.71;35.73
70555;BME280;58104;52.744;15.242;2022-10-26T12:02:37;101247.55;;;26.60;35.92
70555;BME280;58104;52.744;15.242;2022-10-26T12:05:01;101245.57;;;26.78;35.90
70555;BME280;58104;52.744;15.242;2022-10-26T12:07:26;101248.32;;;26.75;35.73
70555;BME280;58104;52.744;15.242;2022-10-26T12:09:48;101247.01;;;26.71;35.85
70555;BME280;58104;52.744;15.242;2022-10-26T12:12:18;101245.50;;;26.87;35.50
70555;BME280;58104;52.744;15.242;2022-10-26T12:14:43;101245.08;;;26.98;35.32
70555;BME280;58104;52.744;15.242;2022-10-26T12:17:09;101242.39;;;26.77;35.78
70555;BME280;58104;52.744;15.242;2022-10-26T12:19:35;101242.84;;;26.72;35.78
70555;BME280;58104;52.744;15.242;2022-10-26T12:21:55;101244.66;;;26.51;35.64
70555;BME280;58104;52.744;15.242;2022-10-26T12:24:25;101243.75;;;26.33;36.47
70555;BME280;58104;52.744;15.242;2022-10-26T12:26:50;101243.20;;;26.48;36.19
70555;BME280;58104;52.744;15.242;2022-10-26T12:31:41;101243.61;;;26.50;37.17
70555;BME280;58104;52.744;15.242;2022-10-26T12:34:02;101240.90;;;26.31;37.43
70555;BME280;58104;52.744;15.242;2022-10-26T12:38:55;101234.12;;;25.82;38.16
70555;BME280;58104;52.744;15.242;2022-10-26T12:41:20;101229.58;;;25.82;38.29
70555;BME280;58104;52.744;15.242;2022-10-26T12:43:42;101231.88;;;25.73;38.40
70555;BME280;58104;52.744;15.242;2022-10-26T12:48:38;101226.02;;;25.63;38.22
70555;BME280;58104;52.744;15.242;2022-10-26T12:53:25;101220.64;;;25.67;38.07